Time;durP1;ratioP1;P1;durP2;ratioP2;P2;SDS_P1;SDS_P2;PMS_P1;PMS_P2;Temp;Humidity;BMP_temperature;BMP_pressure;BME280_temperature;BME280_humidity;BME280_pressure;Samples;Min_cycle;Max_cycle;Signal;HPM_P1;HPM_P2
2022/05/03 00:00:50;;;;;;;9.57;6.05;;;;;;;10.42;58.44;101890.16;5048611;28;20071;-68
2022/05/03 00:03:24;;;;;;;7.32;5.85;;;;;;;10.36;58.54;101889.88;5049497;28;20029;-68
2022/05/03 00:06:07;;;;;;;8.63;6.18;;;;;;;10.32;59.07;101888.50;5049668;28;20023;-69
2022/05/03 00:08:43;;;;;;;7.70;6.03;;;;;;;10.33;58.99;101890.16;5044085;28;20037;-68
2022/05/03 00:11:20;;;;;;;9.02;5.90;;;;;;;10.33;59.01;101888.34;5051464;28;20027;-69
2022/05/03 00:14:03;;;;;;;8.55;6.15;;;;;;;10.27;58.97;101882.78;5048176;28;20119;-68
2022/05/03 00:16:30;;;;;;;9.15;6.20;;;;;;;10.27;59.17;101880.97;5059135;28;20554;-68
2022/05/03 00:18:55;;;;;;;7.53;6.13;;;;;;;10.17;59.22;101880.97;5049025;28;20162;-68
2022/05/03 00:21:21;;;;;;;6.53;5.70;;;;;;;10.21;59.40;101885.03;5054592;28;20051;-68
2022/05/03 00:23:47;;;;;;;6.65;5.93;;;;;;;10.13;59.45;101876.91;5047557;28;20116;-68
2022/05/03 00:26:13;;;;;;;8.77;6.07;;;;;;;10.10;59.71;101879.00;5050713;28;20028;-68
2022/05/03 00:28:40;;;;;;;8.63;6.05;;;;;;;10.07;59.81;101876.63;5048361;28;20036;-68
2022/05/03 00:31:06;;;;;;;8.30;5.95;;;;;;;10.09;59.72;101874.66;5053162;28;20037;-68
2022/05/03 00:33:35;;;;;;;9.07;6.03;;;;;;;10.01;59.82;101867.44;5047706;28;20073;-68
2022/05/03 00:36:00;;;;;;;7.40;6.13;;;;;;;9.91;59.64;101856.00;5052026;28;20024;-68
2022/05/03 00:38:26;;;;;;;7.38;5.85;;;;;;;9.87;59.75;101855.44;5047903;28;20458;-68
2022/05/03 00:40:58;;;;;;;9.48;6.30;;;;;;;9.83;60.06;101866.44;5050328;28;20025;-68
2022/05/03 00:43:35;;;;;;;7.95;5.95;;;;;;;9.84;60.18;101869.00;5047422;28;20025;-68
2022/05/03 00:46:13;;;;;;;7.45;5.93;;;;;;;9.80;60.24;101862.25;5050192;28;20021;-68
2022/05/03 00:48:41;;;;;;;8.95;5.82;;;;;;;9.81;59.98;101868.41;5047960;28;20179;-68
2022/05/03 00:51:15;;;;;;;6.72;5.30;;;;;;;9.77;60.00;101867.84;5042048;28;20048;-68
2022/05/03 00:54:12;;;;;;;7.72;5.90;;;;;;;9.73;60.26;101870.94;5047305;28;20078;-68
2022/05/03 00:57:32;;;;;;;8.50;5.60;;;;;;;9.68;60.16;101854.59;5046212;28;20032;-67
2022/05/03 01:00:13;;;;;;;6.35;5.20;;;;;;;9.66;60.30;101869.81;5034495;28;20059;-68
2022/05/03 01:03:06;;;;;;;7.85;5.75;;;;;;;9.58;60.35;101868.72;5042212;28;20021;-68
2022/05/03 01:05:51;;;;;;;7.50;5.63;;;;;;;9.64;60.10;101875.25;5049357;28;20170;-68
2022/05/03 01:08:41;;;;;;;6.95;5.45;;;;;;;9.60;60.46;101869.41;5048492;28;20021;-68
2022/05/03 01:11:29;;;;;;;7.15;5.53;;;;;;;9.49;60.52;101880.13;5042461;28;20398;-68
2022/05/03 01:14:10;;;;;;;7.22;5.47;;;;;;;9.50;60.75;101880.97;5047733;28;20880;-68
2022/05/03 01:16:45;;;;;;;7.43;5.70;;;;;;;9.37;60.75;101862.69;5041336;28;20021;-67
2022/05/03 01:19:29;;;;;;;7.45;5.43;;;;;;;9.38;60.41;101872.31;5047345;28;20094;-68
2022/05/03 01:22:30;;;;;;;6.72;5.30;;;;;;;9.35;60.52;101871.75;5050526;28;20025;-68
2022/05/03 01:25:17;;;;;;;7.82;5.47;;;;;;;9.29;60.51;101870.50;5043634;28;20104;-68
2022/05/03 01:28:01;;;;;;;7.85;5.55;;;;;;;9.34;60.81;101870.06;5049349;28;20055;-68
2022/05/03 01:30:31;;;;;;;8.93;5.78;;;;;;;9.27;60.63;101867.16;5047144;28;20098;-68
2022/05/03 01:33:08;;;;;;;7.68;5.40;;;;;;;9.25;60.63;101866.41;5047895;28;20032;-68
2022/05/03 01:35:38;;;;;;;7.60;5.45;;;;;;;9.24;60.83;101868.22;5046761;28;20116;-68
2022/05/03 01:38:22;;;;;;;7.82;5.55;;;;;;;9.30;60.96;101866.88;5047268;28;20042;-68
2022/05/03 01:41:02;;;;;;;5.90;5.28;;;;;;;9.21;60.93;101863.19;5049737;28;20070;-68
2022/05/03 01:43:51;;;;;;;8.13;5.68;;;;;;;9.26;60.95;101865.47;5048132;28;20035;-68
2022/05/03 01:46:23;;;;;;;10.13;5.28;;;;;;;9.20;60.83;101860.69;5047261;28;20024;-68
2022/05/03 01:52:28;;;;;;;7.65;5.45;;;;;;;9.14;60.79;101862.06;5048757;28;20082;-68
2022/05/03 01:55:07;;;;;;;6.60;5.63;;;;;;;8.98;60.76;101857.31;5045812;28;20220;-68
2022/05/03 01:58:12;;;;;;;8.00;5.60;;;;;;;9.03;61.17;101859.56;5053454;28;20382;-68
2022/05/03 02:00:39;;;;;;;6.88;5.55;;;;;;;8.95;61.22;101848.75;5047951;28;20031;-68
2022/05/03 02:03:27;;;;;;;6.65;5.50;;;;;;;8.98;61.25;101851.19;5045670;28;20024;-68
2022/05/03 02:06:01;;;;;;;6.68;5.55;;;;;;;8.93;61.16;101858.66;5046697;28;20032;-68
2022/05/03 02:08:45;;;;;;;7.35;5.25;;;;;;;9.00;61.17;101859.81;5044373;28;20068;-68
2022/05/03 02:11:16;;;;;;;9.55;5.90;;;;;;;8.87;61.16;101860.03;5050189;28;20035;-68
2022/05/03 02:17:11;;;;;;;6.95;5.43;;;;;;;8.89;61.46;101854.63;5045148;28;20520;-68
2022/05/03 02:19:57;;;;;;;7.63;5.45;;;;;;;8.77;61.58;101859.19;5038680;28;20032;-67
2022/05/03 02:22:54;;;;;;;8.57;5.53;;;;;;;8.78;61.66;101855.56;5045745;28;20401;-68
2022/05/03 02:25:35;;;;;;;6.80;5.25;;;;;;;8.66;61.58;101854.81;5009348;28;20040;-68
2022/05/03 02:28:11;;;;;;;7.55;5.53;;;;;;;8.69;61.53;101853.72;5046849;28;20028;-68
2022/05/03 02:30:39;;;;;;;7.63;5.50;;;;;;;8.64;61.81;101853.25;5046323;28;20020;-68
2022/05/03 02:33:23;;;;;;;9.02;5.43;;;;;;;8.60;61.98;101851.84;5051006;28;20530;-68
2022/05/03 02:35:51;;;;;;;8.63;5.82;;;;;;;8.51;61.76;101855.31;5046627;28;20779;-68
2022/05/03 02:38:24;;;;;;;10.10;6.18;;;;;;;8.51;62.08;101852.66;5048738;28;20028;-68
2022/05/03 02:40:52;;;;;;;9.43;6.35;;;;;;;8.37;62.20;101852.03;5046893;28;20029;-68
2022/05/03 02:43:19;;;;;;;7.90;6.10;;;;;;;8.34;62.24;101847.00;5048035;28;20398;-68
2022/05/03 02:45:56;;;;;;;7.20;5.80;;;;;;;8.38;62.54;101859.03;5047202;28;20032;-68
2022/05/03 02:48:40;;;;;;;8.90;5.95;;;;;;;8.33;62.31;101850.59;5047889;28;20021;-68
2022/05/03 02:51:07;;;;;;;6.70;5.78;;;;;;;8.33;62.66;101855.03;5043063;28;20029;-68
2022/05/03 02:53:51;;;;;;;10.63;5.93;;;;;;;8.24;62.60;101854.00;5044116;28;20057;-68
2022/05/03 02:56:22;;;;;;;11.93;5.78;;;;;;;8.22;62.52;101855.13;5047430;28;20105;-68
2022/05/03 02:59:15;;;;;;;8.18;5.68;;;;;;;8.19;62.57;101865.97;5046694;28;20160;-68
2022/05/03 03:02:02;;;;;;;5.95;5.30;;;;;;;8.13;62.69;101862.03;5052885;28;20039;-68
2022/05/03 03:04:37;;;;;;;7.50;5.72;;;;;;;8.01;62.75;101863.88;5045540;28;20448;-69
2022/05/03 03:07:04;;;;;;;7.63;5.50;;;;;;;7.82;63.08;101844.41;5046209;28;20033;-68
2022/05/03 03:09:43;;;;;;;8.55;5.63;;;;;;;7.84;63.39;101859.19;5047752;28;20033;-68
2022/05/03 03:12:38;;;;;;;6.82;5.82;;;;;;;7.96;63.36;101857.31;5044882;28;20021;-68
2022/05/03 03:15:07;;;;;;;8.10;6.00;;;;;;;7.86;63.39;101857.25;5046317;28;20029;-68
2022/05/03 03:17:36;;;;;;;8.52;6.50;;;;;;;7.88;63.64;101855.31;5047291;28;20494;-68
2022/05/03 03:20:09;;;;;;;8.45;6.25;;;;;;;7.92;63.98;101858.53;5052504;28;20017;-68
2022/05/03 03:22:47;;;;;;;8.00;6.30;;;;;;;7.88;63.93;101852.69;5046129;28;20099;-68
2022/05/03 03:25:19;;;;;;;8.65;6.32;;;;;;;7.85;63.94;101858.22;5054195;28;20059;-68
2022/05/03 03:27:46;;;;;;;11.43;7.05;;;;;;;7.87;63.87;101853.63;5048184;28;20100;-68
2022/05/03 03:30:13;;;;;;;10.02;6.88;;;;;;;7.84;64.12;101853.91;5050322;28;20037;-68
2022/05/03 03:32:45;;;;;;;7.88;6.35;;;;;;;7.69;64.31;101850.72;5047215;28;20075;-68
2022/05/03 03:35:12;;;;;;;9.13;7.05;;;;;;;7.54;64.32;101852.00;5047964;28;20360;-68
2022/05/03 03:37:42;;;;;;;8.25;6.30;;;;;;;7.53;64.55;101854.75;5049324;28;20107;-68
2022/05/03 03:40:08;;;;;;;7.70;6.50;;;;;;;7.45;64.79;101850.06;5051244;28;20017;-68
2022/05/03 03:42:33;;;;;;;10.93;6.20;;;;;;;7.46;65.04;101849.94;5050081;28;20558;-68
2022/05/03 03:45:01;;;;;;;18.33;6.60;;;;;;;7.35;65.02;101843.88;5048846;28;20072;-68
2022/05/03 03:47:29;;;;;;;9.00;6.63;;;;;;;7.41;65.31;101846.00;5049116;28;20048;-67
2022/05/03 03:49:56;;;;;;;10.48;7.00;;;;;;;7.37;65.33;101841.94;5049377;28;20047;-67
2022/05/03 03:52:23;;;;;;;11.10;6.93;;;;;;;7.43;65.58;101841.44;5051898;28;20029;-68
2022/05/03 03:54:49;;;;;;;9.60;7.32;;;;;;;7.46;65.64;101839.38;5050792;28;20390;-68
2022/05/03 03:57:15;;;;;;;9.88;6.65;;;;;;;7.38;65.82;101835.69;5049033;28;20486;-68
2022/05/03 03:59:41;;;;;;;10.60;6.88;;;;;;;7.38;65.75;101847.09;5049999;28;20035;-68
2022/05/03 04:02:06;;;;;;;8.32;6.93;;;;;;;7.36;65.96;101849.03;5049290;28;20025;-68
2022/05/03 04:04:35;;;;;;;7.68;6.72;;;;;;;7.32;65.91;101849.41;5048101;28;20627;-68
2022/05/03 04:07:02;;;;;;;8.48;6.63;;;;;;;7.30;65.90;101856.63;5048863;28;20028;-67
2022/05/03 04:09:28;;;;;;;11.38;7.30;;;;;;;7.24;66.05;101859.78;5049736;28;20039;-68
2022/05/03 04:11:53;;;;;;;8.52;6.97;;;;;;;7.18;66.14;101861.09;5048714;28;20476;-66
2022/05/03 04:14:19;;;;;;;9.45;7.00;;;;;;;7.09;66.27;101857.38;5048380;28;20028;-68
2022/05/03 04:16:45;;;;;;;9.70;6.87;;;;;;;7.02;66.41;101855.38;5049192;28;20482;-68
2022/05/03 04:19:12;;;;;;;9.27;6.72;;;;;;;7.02;66.51;101855.38;5048903;28;20139;-67
2022/05/03 04:21:38;;;;;;;11.20;7.25;;;;;;;7.05;66.65;101857.75;5049301;28;20021;-68
2022/05/03 04:24:04;;;;;;;10.07;7.40;;;;;;;7.00;66.60;101849.38;5048034;28;20029;-68
2022/05/03 04:26:29;;;;;;;9.90;7.07;;;;;;;7.03;66.53;101846.47;5048418;28;20031;-68
2022/05/03 04:28:59;;;;;;;14.02;7.55;;;;;;;7.01;67.09;101857.16;5049139;28;20040;-68
2022/05/03 04:31:32;;;;;;;12.43;7.97;;;;;;;7.00;67.46;101855.50;5046868;28;20053;-68
2022/05/03 04:33:58;;;;;;;10.23;7.93;;;;;;;7.00;67.53;101857.28;5048109;28;20505;-68
2022/05/03 04:36:27;;;;;;;12.35;8.07;;;;;;;7.04;67.64;101859.56;5048215;28;20063;-68
2022/05/03 04:38:52;;;;;;;10.57;7.47;;;;;;;7.08;67.83;101857.50;5048643;28;20032;-68
2022/05/03 04:41:20;;;;;;;10.73;8.00;;;;;;;7.08;67.88;101861.00;5047924;28;20017;-68
2022/05/03 04:43:46;;;;;;;11.95;8.23;;;;;;;7.14;68.11;101860.50;5048218;28;20028;-68
2022/05/03 04:46:11;;;;;;;13.48;7.95;;;;;;;7.21;68.18;101860.84;5047686;28;20029;-68
2022/05/03 04:48:37;;;;;;;11.68;7.88;;;;;;;7.24;68.27;101863.25;5049474;28;20872;-68
2022/05/03 04:51:02;;;;;;;9.93;7.90;;;;;;;7.31;68.39;101864.44;5049077;28;20031;-68
2022/05/03 04:53:28;;;;;;;10.82;7.65;;;;;;;7.40;68.64;101858.38;5047607;28;20031;-68
2022/05/03 04:55:54;;;;;;;12.23;8.38;;;;;;;7.39;68.48;101861.16;5047310;28;20210;-68
2022/05/03 04:58:19;;;;;;;9.93;8.18;;;;;;;7.49;68.47;101856.78;5048189;28;20021;-68
2022/05/03 05:00:45;;;;;;;11.80;7.93;;;;;;;7.54;68.50;101864.38;5047222;28;20083;-68
2022/05/03 05:03:10;;;;;;;12.18;8.63;;;;;;;7.69;68.49;101863.09;5047508;28;20036;-68
2022/05/03 05:05:35;;;;;;;10.85;8.20;;;;;;;7.71;68.52;101869.09;5047861;28;20025;-68
2022/05/03 05:08:06;;;;;;;17.55;8.60;;;;;;;7.84;68.54;101874.22;5048174;28;20028;-69
2022/05/03 05:10:32;;;;;;;12.10;7.93;;;;;;;7.99;68.32;101876.41;5047762;28;20025;-67
2022/05/03 05:12:58;;;;;;;11.85;8.10;;;;;;;8.07;68.18;101873.09;5046825;28;20579;-68
2022/05/03 05:15:23;;;;;;;12.02;8.45;;;;;;;8.10;68.24;101875.53;5047325;28;20058;-68
2022/05/03 05:17:53;;;;;;;12.80;7.60;;;;;;;8.14;67.89;101876.94;5047820;28;20074;-69
2022/05/03 05:20:19;;;;;;;13.73;8.23;;;;;;;8.19;67.82;101877.38;5048383;28;20032;-68
2022/05/03 05:22:45;;;;;;;12.90;8.60;;;;;;;8.35;67.63;101884.88;5047301;28;20765;-68
2022/05/03 05:25:10;;;;;;;11.60;8.18;;;;;;;8.51;67.55;101887.91;5047701;28;20028;-68
2022/05/03 05:27:36;;;;;;;14.68;8.10;;;;;;;8.58;67.55;101893.50;5047452;28;20608;-67
2022/05/03 05:30:02;;;;;;;11.25;8.18;;;;;;;8.62;67.10;101897.56;5041944;28;20024;-68
2022/05/03 05:32:27;;;;;;;14.25;8.52;;;;;;;8.81;66.89;101902.97;5048732;28;20043;-67
2022/05/03 05:34:52;;;;;;;10.95;8.15;;;;;;;8.83;66.90;101902.84;5042061;28;20040;-68
2022/05/03 05:37:18;;;;;;;11.77;7.75;;;;;;;8.90;66.82;101896.03;5046861;28;20102;-68
2022/05/03 05:39:44;;;;;;;9.07;8.00;;;;;;;8.99;66.40;101901.38;5046174;28;20051;-68
2022/05/03 05:42:11;;;;;;;15.73;8.43;;;;;;;9.11;66.27;101903.91;5048181;28;20025;-67
2022/05/03 05:44:37;;;;;;;10.98;8.35;;;;;;;9.12;66.12;101900.28;5045219;28;20039;-67
2022/05/03 05:47:02;;;;;;;12.80;8.38;;;;;;;9.29;65.89;101897.84;5047172;28;20028;-69
2022/05/03 05:49:28;;;;;;;9.52;7.97;;;;;;;9.32;65.76;101904.69;5046734;28;20082;-69
2022/05/03 05:53:31;;;;;;;12.70;8.30;;;;;;;9.46;65.64;101901.63;5046438;28;20112;-68
2022/05/03 05:54:38;;;;;;;10.23;8.02;;;;;;;9.50;65.40;101895.06;5044104;28;20413;-68
2022/05/03 05:57:04;;;;;;;15.20;8.23;;;;;;;9.61;65.48;101910.88;5046866;28;20033;-69
2022/05/03 05:59:29;;;;;;;13.25;8.35;;;;;;;9.66;65.05;101909.59;5051639;28;20025;-67
2022/05/03 06:01:54;;;;;;;11.40;7.50;;;;;;;9.66;64.63;101904.31;5046797;28;20067;-67
2022/05/03 06:04:19;;;;;;;14.25;7.80;;;;;;;9.78;64.59;101903.19;5044805;28;20090;-67
2022/05/03 06:06:45;;;;;;;11.50;7.93;;;;;;;9.83;64.67;101903.59;5046347;28;20025;-67
2022/05/03 06:09:10;;;;;;;12.23;7.93;;;;;;;9.85;64.60;101906.97;5046798;28;20347;-69
2022/05/03 06:11:35;;;;;;;11.85;7.82;;;;;;;9.96;64.10;101903.31;5046190;28;20024;-69
2022/05/03 06:14:00;;;;;;;13.23;8.07;;;;;;;10.07;63.54;101901.34;5045536;28;20037;-69
2022/05/03 06:16:26;;;;;;;10.10;7.15;;;;;;;10.15;63.30;101900.66;5048679;28;20382;-66
2022/05/03 06:18:51;;;;;;;11.32;7.68;;;;;;;10.21;62.74;101906.28;5040416;28;20560;-67
2022/05/03 06:21:16;;;;;;;13.45;7.47;;;;;;;10.27;62.26;101904.88;5044668;28;20025;-67
2022/05/03 06:23:42;;;;;;;9.82;6.88;;;;;;;10.36;61.82;101900.50;5041846;28;20091;-66
2022/05/03 06:26:09;;;;;;;8.77;6.55;;;;;;;10.44;61.40;101908.63;5045872;28;20067;-67
2022/05/03 06:28:35;;;;;;;10.05;6.65;;;;;;;10.51;60.58;101909.72;5040487;28;20040;-67
2022/05/03 06:31:00;;;;;;;9.88;6.22;;;;;;;10.59;60.25;101911.63;5040059;28;20033;-67
2022/05/03 06:33:26;;;;;;;12.43;6.10;;;;;;;10.67;59.60;101914.41;5038111;28;20036;-68
2022/05/03 06:35:51;;;;;;;9.73;6.32;;;;;;;10.73;59.51;101911.19;5052618;28;20033;-69
2022/05/03 06:38:17;;;;;;;10.60;6.45;;;;;;;10.74;59.33;101918.16;5040808;28;20854;-69
2022/05/03 06:40:42;;;;;;;6.75;5.70;;;;;;;10.83;58.61;101918.13;5040163;28;20036;-69
2022/05/03 06:43:10;;;;;;;8.85;6.07;;;;;;;10.85;58.25;101902.03;5041458;28;20091;-69
2022/05/03 06:45:36;;;;;;;7.68;5.57;;;;;;;11.05;57.75;101913.44;5045068;28;20041;-69
2022/05/03 06:48:01;;;;;;;8.88;5.75;;;;;;;11.11;57.33;101916.31;5039930;28;20033;-69
2022/05/03 06:50:29;;;;;;;7.53;4.90;;;;;;;11.29;56.22;101919.03;5045534;28;20029;-69
2022/05/03 06:52:54;;;;;;;7.75;5.55;;;;;;;11.40;55.75;101915.34;5046154;28;20032;-69
2022/05/03 06:55:20;;;;;;;6.40;4.88;;;;;;;11.44;55.16;101906.91;5045356;28;20090;-69
2022/05/03 06:57:46;;;;;;;5.45;4.30;;;;;;;11.64;54.01;101917.41;5047830;28;20029;-70
2022/05/03 07:00:12;;;;;;;6.80;4.57;;;;;;;11.80;53.30;101912.25;5046099;28;20386;-69
2022/05/03 07:02:37;;;;;;;5.45;4.45;;;;;;;11.82;53.04;101920.94;5046645;28;20036;-69
2022/05/03 07:05:03;;;;;;;6.38;4.10;;;;;;;11.86;52.62;101908.19;5045260;28;20035;-69
2022/05/03 07:07:29;;;;;;;9.32;4.47;;;;;;;11.95;52.30;101918.75;5051655;28;20112;-69
2022/05/03 07:09:59;;;;;;;9.20;4.10;;;;;;;12.02;52.03;101910.97;5047647;28;20829;-69
2022/05/03 07:12:25;;;;;;;6.90;4.53;;;;;;;12.17;51.52;101922.75;5043084;28;20045;-69
2022/05/03 07:14:50;;;;;;;6.95;4.10;;;;;;;12.24;51.50;101914.97;5043577;28;20025;-69
2022/05/03 07:22:46;;;;;;;5.00;3.53;;;;;;;12.36;49.27;101924.38;5047808;28;20079;-70
2022/05/03 07:25:13;;;;;;;6.18;3.97;;;;;;;12.38;49.42;101912.56;5045839;28;20024;-70
2022/05/03 07:27:38;;;;;;;5.78;4.30;;;;;;;12.46;49.39;101919.81;5046919;28;20037;-69
2022/05/03 07:30:04;;;;;;;6.70;4.45;;;;;;;12.53;49.10;101915.50;5040390;28;20082;-70
2022/05/03 07:32:29;;;;;;;7.68;5.00;;;;;;;12.60;48.69;101919.22;5046177;28;20036;-69
2022/05/03 07:34:55;;;;;;;6.82;4.90;;;;;;;12.62;48.42;101919.06;5048222;28;20040;-69
2022/05/03 07:37:20;;;;;;;7.35;4.93;;;;;;;12.65;48.90;101927.56;5049161;28;20451;-69
2022/05/03 07:39:45;;;;;;;7.38;5.40;;;;;;;12.70;48.84;101925.25;5049948;28;20025;-69
2022/05/03 07:42:11;;;;;;;11.00;5.57;;;;;;;12.76;49.06;101931.81;5049044;28;20036;-70
2022/05/03 07:44:37;;;;;;;8.75;5.45;;;;;;;12.83;48.95;101929.34;5048578;28;20658;-70
2022/05/03 07:47:02;;;;;;;10.13;6.03;;;;;;;12.86;48.87;101929.88;5045633;28;20106;-69
2022/05/03 07:49:28;;;;;;;8.57;5.38;;;;;;;12.88;48.65;101929.69;5047819;28;20033;-69
2022/05/03 07:51:53;;;;;;;10.13;6.00;;;;;;;12.99;49.34;101942.75;5049082;28;20466;-70
2022/05/03 07:54:18;;;;;;;10.32;6.25;;;;;;;12.99;49.48;101937.41;5048565;28;20548;-70
2022/05/03 07:56:43;;;;;;;9.32;6.70;;;;;;;13.03;49.69;101939.63;5049007;28;20025;-70
2022/05/03 07:59:10;;;;;;;9.27;6.07;;;;;;;13.01;49.94;101924.78;5048121;28;20086;-69
2022/05/03 08:01:39;;;;;;;12.52;6.68;;;;;;;13.11;50.10;101932.66;5047986;28;20147;-70
2022/05/03 08:04:05;;;;;;;11.85;6.35;;;;;;;13.16;50.29;101928.50;5041395;28;20064;-70
2022/05/03 08:06:30;;;;;;;9.70;6.55;;;;;;;13.16;50.50;101927.66;5053138;28;20060;-69
2022/05/03 08:08:56;;;;;;;8.15;6.30;;;;;;;13.25;50.29;101926.72;5049581;28;20056;-70
2022/05/03 08:11:21;;;;;;;11.82;6.57;;;;;;;13.30;50.99;101924.44;5048756;28;20052;-70
2022/05/03 08:13:48;;;;;;;10.00;6.43;;;;;;;13.32;50.50;101928.59;5047977;28;20413;-70
2022/05/03 08:16:19;;;;;;;8.15;6.30;;;;;;;13.35;50.64;101938.13;5048880;28;20032;-70
2022/05/03 08:18:44;;;;;;;11.48;6.85;;;;;;;13.29;50.67;101914.72;5048795;28;20261;-70
2022/05/03 08:21:11;;;;;;;9.80;7.20;;;;;;;13.42;50.64;101938.28;5048677;28;20749;-69
2022/05/03 08:23:37;;;;;;;9.68;7.05;;;;;;;13.46;50.32;101931.63;5047718;28;20529;-69
2022/05/03 08:26:02;;;;;;;8.05;6.88;;;;;;;13.48;50.76;101932.31;5052674;28;20031;-69
2022/05/03 08:28:27;;;;;;;8.45;6.85;;;;;;;13.56;50.74;101934.97;5050570;28;20036;-69
2022/05/03 08:30:53;;;;;;;10.98;7.35;;;;;;;13.66;50.92;101925.00;5048820;28;20033;-69
2022/05/03 08:33:18;;;;;;;9.50;6.97;;;;;;;13.68;50.97;101936.38;5047663;28;20607;-69
2022/05/03 08:35:43;;;;;;;9.30;7.60;;;;;;;13.78;51.12;101937.03;5049261;28;20032;-69
2022/05/03 08:43:38;;;;;;;10.32;7.47;;;;;;;14.04;50.58;101946.75;5041948;28;20044;-69
2022/05/03 08:46:06;;;;;;;12.45;7.93;;;;;;;14.09;50.51;101936.41;5047873;28;20672;-69
2022/05/03 08:48:34;;;;;;;11.13;7.50;;;;;;;14.14;50.42;101939.41;5048693;28;20056;-69
2022/05/03 08:51:00;;;;;;;9.90;8.05;;;;;;;14.18;50.09;101932.75;5048007;28;20025;-69
2022/05/03 08:53:27;;;;;;;11.65;8.30;;;;;;;14.34;50.20;101945.25;5047295;28;20028;-70
2022/05/03 08:55:52;;;;;;;12.20;8.38;;;;;;;14.45;50.21;101937.72;5048032;28;20024;-69
2022/05/03 08:58:18;;;;;;;12.40;8.60;;;;;;;14.55;50.03;101938.41;5048157;28;20033;-69
2022/05/03 09:00:44;;;;;;;10.38;8.13;;;;;;;14.60;49.78;101939.72;5048049;28;20029;-69
2022/05/03 09:03:09;;;;;;;14.05;8.88;;;;;;;14.70;49.79;101945.72;5046922;28;20033;-69
2022/05/03 09:05:35;;;;;;;10.80;8.50;;;;;;;14.83;50.08;101940.69;5047702;28;20076;-69
2022/05/03 09:08:01;;;;;;;10.40;8.20;;;;;;;14.91;50.25;101947.84;5048000;28;20104;-70
2022/05/03 09:10:32;;;;;;;13.13;8.80;;;;;;;15.02;49.80;101942.94;5043038;28;20060;-69
2022/05/03 09:13:18;;;;;;;12.48;8.90;;;;;;;15.17;49.03;101943.91;5043385;28;21314;-69
2022/05/03 09:15:46;;;;;;;12.00;8.77;;;;;;;15.30;49.17;101939.81;5041891;28;20029;-69
2022/05/03 09:18:27;;;;;;;10.13;8.13;;;;;;;15.50;48.88;101933.03;5038836;28;20040;-69
2022/05/03 09:23:53;;;;;;;12.57;8.43;;;;;;;15.89;48.69;101930.28;5045544;28;20032;-68
2022/05/03 09:26:20;;;;;;;13.32;8.55;;;;;;;16.21;48.28;101937.25;5044595;28;20520;-71
2022/05/03 09:28:53;;;;;;;13.07;8.98;;;;;;;16.32;48.20;101936.81;5046834;28;20037;-69
2022/05/03 09:31:39;;;;;;;13.60;8.55;;;;;;;16.58;47.90;101940.94;5040749;28;20028;-69
2022/05/03 09:34:17;;;;;;;14.00;8.77;;;;;;;16.73;47.61;101933.75;5032416;28;20028;-69
2022/05/03 09:36:45;;;;;;;12.27;8.82;;;;;;;16.86;47.42;101933.13;5045160;28;20748;-69
2022/05/03 09:39:21;;;;;;;13.65;8.82;;;;;;;17.05;47.06;101940.59;5047243;28;20441;-69
2022/05/03 09:42:10;;;;;;;11.25;8.32;;;;;;;17.30;47.60;101936.59;5047091;28;20024;-69
2022/05/03 09:44:50;;;;;;;12.23;7.75;;;;;;;17.55;47.11;101941.63;5042354;28;20040;-69
2022/05/03 09:47:17;;;;;;;10.20;7.47;;;;;;;17.86;46.79;101941.38;5049463;28;20041;-69
2022/05/03 09:49:42;;;;;;;12.50;8.35;;;;;;;17.62;45.46;101929.09;5046594;28;20029;-69
2022/05/03 09:52:21;;;;;;;15.18;7.80;;;;;;;17.89;45.54;101933.75;5044835;28;20025;-69
2022/05/03 09:54:50;;;;;;;10.63;7.32;;;;;;;17.95;44.60;101940.25;5043755;28;20025;-69
2022/05/03 09:57:22;;;;;;;12.18;7.50;;;;;;;18.30;44.61;101934.97;5046659;28;20021;-69
2022/05/03 09:59:48;;;;;;;13.68;8.80;;;;;;;18.40;44.48;101936.28;5047559;28;20104;-70
2022/05/03 10:02:17;;;;;;;10.98;8.70;;;;;;;18.10;43.78;101926.72;5046201;28;20052;-69
2022/05/03 10:04:44;;;;;;;14.85;8.65;;;;;;;18.32;44.40;101927.53;5041450;28;20033;-69
2022/05/03 10:07:10;;;;;;;9.40;8.27;;;;;;;18.43;45.27;101930.50;5040974;28;20048;-69
2022/05/03 10:09:35;;;;;;;12.65;8.95;;;;;;;18.50;45.16;101936.78;5043756;28;20028;-69
2022/05/03 10:12:02;;;;;;;10.25;8.07;;;;;;;18.47;45.01;101930.94;5043313;28;20657;-69
2022/05/03 10:14:27;;;;;;;10.50;8.50;;;;;;;18.56;43.98;101930.59;5040050;28;20452;-69
2022/05/03 10:22:42;;;;;;;11.20;7.95;;;;;;;18.47;43.41;101921.00;5010294;28;20043;-69
2022/05/03 10:25:08;;;;;;;11.25;8.80;;;;;;;18.48;44.19;101924.53;5011717;28;20446;-69
2022/05/03 10:27:54;;;;;;;14.45;10.30;;;;;;;18.42;44.02;101923.47;5021692;28;20090;-70
2022/05/03 10:30:22;;;;;;;15.50;10.25;;;;;;;18.28;44.05;101916.34;5049274;28;20032;-69
2022/05/03 10:33:35;;;;;;;10.70;8.70;;;;;;;18.50;44.76;101917.09;5039045;28;21028;-70
2022/05/03 10:36:01;;;;;;;10.68;7.68;;;;;;;18.78;44.82;101915.22;5029184;28;20041;-69
2022/05/03 10:38:43;;;;;;;11.82;8.85;;;;;;;19.07;44.81;101903.38;5043369;28;20035;-69
2022/05/03 10:41:09;;;;;;;12.93;8.27;;;;;;;19.00;44.37;101920.53;5042382;28;20028;-69
2022/05/03 10:43:36;;;;;;;9.07;7.22;;;;;;;18.90;43.89;101912.00;5041538;28;20406;-69
2022/05/03 10:46:19;;;;;;;10.50;6.85;;;;;;;18.78;43.61;101917.09;5048203;28;20122;-69
2022/05/03 10:49:04;;;;;;;10.95;7.40;;;;;;;18.74;44.08;101922.03;5052016;28;20039;-69
2022/05/03 10:51:29;;;;;;;9.88;7.90;;;;;;;18.62;44.67;101910.19;5046712;28;20060;-69
2022/05/03 10:53:59;;;;;;;12.20;8.65;;;;;;;18.61;43.96;101921.94;5052050;28;20112;-69
2022/05/03 10:56:24;;;;;;;10.07;7.93;;;;;;;18.55;44.20;101904.75;5050001;28;20029;-68
2022/05/03 10:59:06;;;;;;;13.52;8.95;;;;;;;18.51;45.09;101903.47;5042380;28;20024;-69
2022/05/03 11:01:32;;;;;;;12.65;9.05;;;;;;;18.55;44.77;101903.91;5045456;28;20040;-66
2022/05/03 11:04:00;;;;;;;9.25;7.22;;;;;;;18.87;44.94;101905.16;5041093;28;20053;-72
2022/05/03 11:06:25;;;;;;;9.27;7.07;;;;;;;19.27;47.01;101898.06;5036785;28;20036;-69
2022/05/03 11:11:42;;;;;;;8.73;7.05;;;;;;;19.34;45.30;101893.53;5041429;28;20082;-70
2022/05/03 11:14:20;;;;;;;8.75;6.20;;;;;;;19.40;45.40;101890.03;5037360;28;20053;-70
2022/05/03 11:17:10;;;;;;;11.25;7.65;;;;;;;19.30;44.99;101884.19;5058712;28;20104;-69
2022/05/03 11:19:37;;;;;;;9.85;8.18;;;;;;;19.24;44.93;101889.56;5046375;28;20110;-70
2022/05/03 11:22:13;;;;;;;12.18;8.40;;;;;;;19.08;45.73;101877.28;5039301;28;20016;-69
2022/05/03 11:24:43;;;;;;;9.25;7.70;;;;;;;19.00;45.62;101889.06;5042885;28;20036;-69
2022/05/03 11:27:10;;;;;;;6.90;5.45;;;;;;;18.93;45.69;101887.38;5042718;28;20078;-69
2022/05/03 11:29:38;;;;;;;6.28;4.10;;;;;;;18.99;44.59;101882.00;5038852;28;20048;-71
2022/05/03 11:32:07;;;;;;;7.22;3.78;;;;;;;19.26;44.36;101872.16;5048035;28;20517;-70
2022/05/03 11:34:33;;;;;;;7.38;4.03;;;;;;;19.57;44.13;101870.81;5037863;28;20651;-70
2022/05/03 11:37:00;;;;;;;4.90;3.75;;;;;;;19.69;43.97;101874.59;5046417;28;20027;-69
2022/05/03 11:39:25;;;;;;;10.20;7.40;;;;;;;19.77;43.17;101869.81;5046876;28;20790;-70
2022/05/03 11:41:51;;;;;;;14.88;8.15;;;;;;;19.76;43.36;101870.84;5052364;28;20024;-70
2022/05/03 11:44:17;;;;;;;11.95;7.75;;;;;;;19.76;43.08;101867.34;5047240;28;20498;-69
2022/05/03 11:46:44;;;;;;;11.48;7.93;;;;;;;19.63;43.12;101876.22;5049166;28;20593;-70
2022/05/03 11:49:12;;;;;;;12.65;8.50;;;;;;;19.52;43.16;101859.81;5049374;28;20028;-70
2022/05/03 11:57:19;;;;;;;14.90;10.18;;;;;;;19.29;44.62;101860.16;5045115;28;20410;-69
2022/05/03 11:59:45;;;;;;;15.57;10.18;;;;;;;19.21;44.25;101861.19;5048464;28;20110;-70
2022/05/03 12:02:21;;;;;;;13.20;10.52;;;;;;;19.19;44.80;101855.16;5051035;28;20047;-70
2022/05/03 12:05:05;;;;;;;16.45;10.68;;;;;;;19.19;44.53;101845.22;5050095;28;20025;-72
2022/05/03 12:07:35;;;;;;;14.40;10.80;;;;;;;19.13;44.90;101845.22;5050116;28;20040;-70
2022/05/03 12:10:00;;;;;;;15.75;10.63;;;;;;;19.10;44.99;101842.94;5039455;28;20025;-70
2022/05/03 12:12:45;;;;;;;12.63;9.70;;;;;;;19.09;44.74;101844.78;5045702;28;20048;-69
2022/05/03 12:15:28;;;;;;;12.15;9.52;;;;;;;19.23;44.29;101851.03;5044691;28;20082;-70